Anzahl Datensätze: 286
min. Temperatur: 12.0 °C
max. Temperatur: 20.4 °C
max. Windgeschwindigkeit: 48.2 km/h
Niederschlagsumme: 1.8 mm
| Datum |
Zeit |
Temp °C |
Feuchte % |
Taupunkt °C |
Luftdruck hPa |
Wind km/h |
Windrichtung |
Strahlung w/m² |
Niederschlag mm |
|---|---|---|---|---|---|---|---|---|---|
| 11.09.2025 | 00:04 | 12.7 | 95 | 11.9 | 1007.0 | 0.0 | W | 0 | 0.0 |
| 11.09.2025 | 00:09 | 12.6 | 94 | 11.7 | 1007.0 | 0.0 | W | 0 | 0.0 |
| 11.09.2025 | 00:14 | 12.4 | 95 | 11.6 | 1007.0 | 1.8 | W | 0 | 0.0 |
| 11.09.2025 | 00:19 | 12.4 | 95 | 11.6 | 1007.0 | 0.0 | W | 0 | 0.0 |
| 11.09.2025 | 00:24 | 12.4 | 95 | 11.6 | 1007.0 | 0.0 | W | 0 | 0.0 |
| 11.09.2025 | 00:29 | 12.3 | 95 | 11.5 | 1007.0 | 0.0 | W | 0 | 0.0 |
| 11.09.2025 | 00:34 | 12.3 | 95 | 11.5 | 1006.9 | 1.8 | W | 0 | 0.0 |
| 11.09.2025 | 00:39 | 12.2 | 95 | 11.4 | 1007.0 | 1.8 | W | 0 | 0.0 |
| 11.09.2025 | 00:44 | 12.1 | 95 | 11.3 | 1007.0 | 4.3 | W | 0 | 0.0 |
| 11.09.2025 | 00:49 | 12.1 | 95 | 11.3 | 1007.0 | 0.0 | W | 0 | 0.0 |
| 11.09.2025 | 00:54 | 12.0 | 95 | 11.2 | 1007.0 | 4.3 | W | 0 | 0.0 |
| 11.09.2025 | 00:59 | 12.2 | 95 | 11.4 | 1007.1 | 4.3 | SW | 0 | 0.0 |
| 11.09.2025 | 01:04 | 12.3 | 95 | 11.5 | 1007.1 | 1.8 | SW | 0 | 0.0 |
| 11.09.2025 | 01:09 | 12.4 | 95 | 11.6 | 1007.0 | 4.3 | SW | 0 | 0.0 |
| 11.09.2025 | 01:14 | 12.4 | 95 | 11.6 | 1007.0 | 0.0 | SW | 0 | 0.0 |
| 11.09.2025 | 01:19 | 12.4 | 95 | 11.6 | 1007.0 | 0.0 | SW | 0 | 0.0 |
| 11.09.2025 | 01:24 | 12.3 | 95 | 11.5 | 1007.1 | 0.0 | SW | 0 | 0.0 |
| 11.09.2025 | 01:29 | 12.3 | 95 | 11.5 | 1007.1 | 0.0 | SW | 0 | 0.0 |
| 11.09.2025 | 01:34 | 12.3 | 95 | 11.5 | 1007.1 | 0.0 | SW | 0 | 0.0 |
| 11.09.2025 | 01:39 | 12.2 | 95 | 11.4 | 1007.1 | 0.0 | SW | 0 | 0.0 |
| 11.09.2025 | 01:44 | 12.3 | 95 | 11.5 | 1007.1 | 0.0 | SW | 0 | 0.0 |
| 11.09.2025 | 01:49 | 12.4 | 96 | 11.8 | 1007.1 | 0.0 | SW | 0 | 0.0 |
| 11.09.2025 | 01:54 | 12.5 | 96 | 11.9 | 1007.0 | 0.0 | SW | 0 | 0.0 |
| 11.09.2025 | 01:59 | 12.4 | 96 | 11.8 | 1007.0 | 0.0 | SW | 0 | 0.0 |
| 11.09.2025 | 02:04 | 12.3 | 95 | 11.5 | 1007.0 | 0.0 | SW | 0 | 0.0 |
| 11.09.2025 | 02:09 | 12.2 | 95 | 11.4 | 1007.0 | 0.0 | SW | 0 | 0.0 |
| 11.09.2025 | 02:15 | 12.2 | 95 | 11.4 | 1006.9 | 0.0 | SW | 0 | 0.0 |
| 11.09.2025 | 02:20 | 12.2 | 95 | 11.4 | 1006.9 | 0.0 | SW | 0 | 0.0 |
| 11.09.2025 | 02:25 | 12.3 | 96 | 11.7 | 1006.9 | 0.0 | SW | 0 | 0.0 |
| 11.09.2025 | 02:30 | 12.4 | 96 | 11.8 | 1006.9 | 0.0 | SW | 0 | 0.0 |
| 11.09.2025 | 02:35 | 12.5 | 96 | 11.9 | 1006.9 | 0.0 | SW | 0 | 0.0 |
| 11.09.2025 | 02:40 | 12.5 | 96 | 11.9 | 1006.9 | 0.0 | SW | 0 | 0.0 |
| 11.09.2025 | 02:45 | 12.5 | 96 | 11.9 | 1006.9 | 0.0 | SW | 0 | 0.0 |
| 11.09.2025 | 02:50 | 12.6 | 96 | 12.0 | 1006.9 | 0.0 | SW | 0 | 0.0 |
| 11.09.2025 | 02:55 | 12.9 | 96 | 12.3 | 1006.8 | 0.0 | SW | 0 | 0.0 |
| 11.09.2025 | 03:00 | 13.2 | 96 | 12.6 | 1006.8 | 0.0 | SW | 0 | 0.0 |
| 11.09.2025 | 03:05 | 13.4 | 96 | 12.8 | 1006.7 | 0.0 | SW | 0 | 0.0 |
| 11.09.2025 | 03:10 | 13.6 | 96 | 13.0 | 1006.8 | 4.3 | SW | 0 | 0.0 |
| 11.09.2025 | 03:15 | 13.7 | 96 | 13.1 | 1006.6 | 0.0 | SW | 0 | 0.0 |
| 11.09.2025 | 03:20 | 13.8 | 96 | 13.2 | 1006.6 | 1.8 | SW | 0 | 0.0 |
| 11.09.2025 | 03:25 | 13.8 | 96 | 13.2 | 1006.6 | 4.3 | SW | 0 | 0.0 |
| 11.09.2025 | 03:30 | 13.8 | 96 | 13.2 | 1006.6 | 0.0 | SW | 0 | 0.0 |
| 11.09.2025 | 03:35 | 13.8 | 96 | 13.2 | 1006.7 | 0.0 | SW | 0 | 0.0 |
| 11.09.2025 | 03:40 | 13.7 | 96 | 13.1 | 1006.7 | 0.0 | SW | 0 | 0.0 |
| 11.09.2025 | 03:45 | 13.8 | 96 | 13.2 | 1006.7 | 4.3 | SW | 0 | 0.0 |
| 11.09.2025 | 03:50 | 13.7 | 96 | 13.1 | 1006.6 | 6.1 | SW | 0 | 0.0 |
| 11.09.2025 | 03:55 | 13.7 | 96 | 13.1 | 1006.7 | 0.0 | SW | 0 | 0.0 |
| 11.09.2025 | 04:00 | 13.7 | 96 | 13.1 | 1006.6 | 1.8 | SW | 0 | 0.0 |
| 11.09.2025 | 04:05 | 13.7 | 96 | 13.1 | 1006.6 | 1.8 | SW | 0 | 0.0 |
| 11.09.2025 | 04:10 | 13.7 | 96 | 13.1 | 1006.8 | 4.3 | SW | 0 | 0.0 |
| 11.09.2025 | 04:15 | 13.8 | 96 | 13.2 | 1006.7 | 1.8 | SW | 0 | 0.0 |
| 11.09.2025 | 04:20 | 13.9 | 96 | 13.3 | 1006.6 | 4.3 | SW | 0 | 0.0 |
| 11.09.2025 | 04:25 | 13.9 | 96 | 13.3 | 1006.6 | 4.3 | SW | 0 | 0.0 |
| 11.09.2025 | 04:30 | 13.9 | 96 | 13.3 | 1006.6 | 4.3 | SW | 0 | 0.0 |
| 11.09.2025 | 04:35 | 14.0 | 96 | 13.4 | 1006.6 | 0.0 | SW | 0 | 0.0 |
| 11.09.2025 | 04:40 | 14.0 | 96 | 13.4 | 1006.6 | 0.0 | SW | 0 | 0.0 |
| 11.09.2025 | 04:45 | 14.1 | 96 | 13.5 | 1006.6 | 0.0 | SW | 0 | 0.0 |
| 11.09.2025 | 04:50 | 14.1 | 96 | 13.5 | 1006.6 | 0.0 | SW | 0 | 0.0 |
| 11.09.2025 | 04:55 | 14.1 | 96 | 13.5 | 1006.6 | 0.0 | SW | 0 | 0.0 |
| 11.09.2025 | 05:00 | 14.1 | 96 | 13.5 | 1006.6 | 0.0 | SW | 0 | 0.0 |
| 11.09.2025 | 05:06 | 14.1 | 96 | 13.5 | 1006.6 | 0.0 | SW | 0 | 0.0 |
| 11.09.2025 | 05:11 | 14.1 | 96 | 13.5 | 1006.6 | 1.8 | SW | 0 | 0.0 |
| 11.09.2025 | 05:16 | 14.1 | 96 | 13.5 | 1006.6 | 8.3 | S | 0 | 0.0 |
| 11.09.2025 | 05:21 | 14.1 | 96 | 13.5 | 1006.5 | 0.0 | S | 0 | 0.0 |
| 11.09.2025 | 05:26 | 14.1 | 96 | 13.5 | 1006.6 | 4.3 | S | 0 | 0.0 |
| 11.09.2025 | 05:31 | 14.1 | 96 | 13.5 | 1006.6 | 1.8 | S | 0 | 0.0 |
| 11.09.2025 | 05:36 | 14.1 | 96 | 13.5 | 1006.7 | 0.0 | S | 0 | 0.0 |
| 11.09.2025 | 05:41 | 14.1 | 96 | 13.5 | 1006.7 | 4.3 | WSW | 0 | 0.0 |
| 11.09.2025 | 05:46 | 14.2 | 96 | 13.6 | 1006.8 | 6.1 | WSW | 0 | 0.0 |
| 11.09.2025 | 05:51 | 14.2 | 96 | 13.6 | 1006.8 | 1.8 | WSW | 0 | 0.0 |
| 11.09.2025 | 05:56 | 14.2 | 96 | 13.6 | 1006.9 | 6.1 | WSW | 0 | 0.0 |
| 11.09.2025 | 06:01 | 14.2 | 96 | 13.6 | 1006.9 | 6.1 | SW | 0 | 0.0 |
| 11.09.2025 | 06:06 | 14.3 | 96 | 13.7 | 1006.9 | 6.1 | SW | 0 | 0.0 |
| 11.09.2025 | 06:11 | 14.3 | 96 | 13.7 | 1006.9 | 4.3 | WSW | 0 | 0.0 |
| 11.09.2025 | 06:16 | 14.3 | 96 | 13.7 | 1007.0 | 8.3 | SW | 0 | 0.0 |
| 11.09.2025 | 06:21 | 14.3 | 96 | 13.7 | 1007.0 | 6.1 | SW | 0 | 0.0 |
| 11.09.2025 | 06:26 | 14.4 | 96 | 13.8 | 1007.2 | 4.3 | SSW | 0 | 0.0 |
| 11.09.2025 | 06:31 | 14.4 | 96 | 13.8 | 1007.2 | 10.4 | SW | 0 | 0.0 |
| 11.09.2025 | 06:36 | 14.4 | 95 | 13.6 | 1007.3 | 4.3 | SW | 0 | 0.0 |
| 11.09.2025 | 06:41 | 14.4 | 96 | 13.8 | 1007.3 | 8.3 | SSW | 0 | 0.0 |
| 11.09.2025 | 06:46 | 14.5 | 96 | 13.9 | 1007.4 | 12.6 | SW | 0 | 0.2 |
| 11.09.2025 | 06:51 | 14.6 | 96 | 14.0 | 1007.4 | 6.1 | WSW | 0 | 0.4 |
| 11.09.2025 | 06:56 | 14.6 | 96 | 14.0 | 1007.5 | 10.4 | SW | 0 | 0.6 |
| 11.09.2025 | 07:01 | 14.7 | 96 | 14.1 | 1007.5 | 10.4 | SW | 0 | 0.6 |
| 11.09.2025 | 07:06 | 14.7 | 96 | 14.1 | 1007.6 | 12.6 | S | 0 | 1.0 |
| 11.09.2025 | 07:11 | 14.8 | 96 | 14.2 | 1007.7 | 6.1 | SW | 5 | 1.0 |
| 11.09.2025 | 07:16 | 14.8 | 96 | 14.2 | 1007.7 | 10.4 | S | 5 | 1.4 |
| 11.09.2025 | 07:21 | 14.8 | 96 | 14.2 | 1007.7 | 12.6 | SSW | 7 | 1.6 |
| 11.09.2025 | 07:26 | 14.8 | 96 | 14.2 | 1007.7 | 8.3 | SSW | 7 | 1.6 |
| 11.09.2025 | 07:31 | 14.8 | 96 | 14.2 | 1007.8 | 10.4 | SSO | 7 | 1.8 |
| 11.09.2025 | 07:36 | 14.9 | 96 | 14.3 | 1007.7 | 12.6 | SSW | 9 | 1.8 |
| 11.09.2025 | 07:41 | 14.9 | 96 | 14.3 | 1007.8 | 4.3 | S | 12 | 1.8 |
| 11.09.2025 | 07:46 | 14.9 | 96 | 14.3 | 1007.8 | 12.6 | SSW | 14 | 1.8 |
| 11.09.2025 | 07:51 | 15.0 | 96 | 14.4 | 1007.8 | 21.2 | SSO | 23 | 1.8 |
| 11.09.2025 | 07:56 | 14.9 | 96 | 14.3 | 1008.0 | 12.6 | SSW | 35 | 1.8 |
| 11.09.2025 | 08:01 | 15.1 | 96 | 14.5 | 1008.1 | 8.3 | SSW | 53 | 1.8 |
| 11.09.2025 | 08:07 | 15.1 | 96 | 14.5 | 1008.1 | 8.3 | SSW | 40 | 1.8 |
| 11.09.2025 | 08:12 | 15.1 | 96 | 14.5 | 1008.1 | 10.4 | S | 37 | 1.8 |
| 11.09.2025 | 08:17 | 15.2 | 96 | 14.6 | 1008.2 | 10.4 | SSW | 60 | 1.8 |
| 11.09.2025 | 08:22 | 15.2 | 96 | 14.6 | 1008.2 | 12.6 | WSW | 77 | 1.8 |
| 11.09.2025 | 08:27 | 15.2 | 96 | 14.6 | 1008.3 | 12.6 | SSW | 60 | 1.8 |
| 11.09.2025 | 08:32 | 15.3 | 96 | 14.7 | 1008.4 | 10.4 | SSW | 39 | 1.8 |
| 11.09.2025 | 08:37 | 15.3 | 96 | 14.7 | 1008.5 | 21.2 | SW | 51 | 1.8 |
| 11.09.2025 | 08:42 | 15.3 | 96 | 14.7 | 1008.6 | 12.6 | SSW | 84 | 1.8 |
| 11.09.2025 | 08:47 | 15.4 | 95 | 14.6 | 1008.6 | 14.4 | SSW | 100 | 1.8 |
| 11.09.2025 | 08:52 | 15.4 | 95 | 14.6 | 1008.7 | 16.9 | SW | 67 | 1.8 |
| 11.09.2025 | 08:57 | 15.4 | 95 | 14.6 | 1008.8 | 18.7 | SSW | 74 | 1.8 |
| 11.09.2025 | 09:02 | 15.5 | 95 | 14.7 | 1008.9 | 8.3 | SSW | 72 | 1.8 |
| 11.09.2025 | 09:07 | 15.6 | 95 | 14.8 | 1008.8 | 14.4 | SSW | 77 | 1.8 |
| 11.09.2025 | 09:12 | 15.6 | 95 | 14.8 | 1008.9 | 6.1 | WSW | 79 | 1.8 |
| 11.09.2025 | 09:17 | 15.6 | 94 | 14.6 | 1009.0 | 6.1 | WSW | 46 | 1.8 |
| 11.09.2025 | 09:22 | 15.7 | 94 | 14.7 | 1009.1 | 12.6 | SSW | 46 | 1.8 |
| 11.09.2025 | 09:27 | 15.7 | 93 | 14.6 | 1009.2 | 10.4 | SW | 163 | 1.8 |
| 11.09.2025 | 09:32 | 15.9 | 93 | 14.8 | 1009.3 | 6.1 | W | 128 | 1.8 |
| 11.09.2025 | 09:37 | 15.9 | 92 | 14.6 | 1009.2 | 16.9 | SSW | 172 | 1.8 |
| 11.09.2025 | 09:42 | 16.0 | 92 | 14.7 | 1009.4 | 16.9 | SSW | 148 | 1.8 |
| 11.09.2025 | 09:47 | 16.1 | 92 | 14.8 | 1009.5 | 8.3 | WSW | 209 | 1.8 |
| 11.09.2025 | 09:52 | 16.3 | 92 | 15.0 | 1009.5 | 23.0 | SW | 171 | 1.8 |
| 11.09.2025 | 09:57 | 16.3 | 91 | 14.8 | 1009.7 | 10.4 | S | 213 | 1.8 |
| 11.09.2025 | 10:02 | 16.7 | 89 | 14.9 | 1009.8 | 14.4 | SW | 301 | 1.8 |
| 11.09.2025 | 10:07 | 17.1 | 88 | 15.1 | 1009.9 | 23.0 | SW | 265 | 1.8 |
| 11.09.2025 | 10:12 | 16.9 | 88 | 14.9 | 1009.9 | 37.4 | WSW | 151 | 1.8 |
| 11.09.2025 | 10:17 | 16.7 | 87 | 14.5 | 1010.0 | 12.6 | SSW | 176 | 1.8 |
| 11.09.2025 | 10:22 | 16.6 | 87 | 14.4 | 1010.2 | 16.9 | SW | 202 | 1.8 |
| 11.09.2025 | 10:27 | 16.6 | 87 | 14.4 | 1010.2 | 16.9 | SW | 237 | 1.8 |
| 11.09.2025 | 10:32 | 16.6 | 86 | 14.2 | 1010.3 | 29.5 | WSW | 313 | 1.8 |
| 11.09.2025 | 10:37 | 16.9 | 85 | 14.4 | 1010.3 | 14.4 | S | 287 | 1.8 |
| 11.09.2025 | 10:42 | 16.9 | 83 | 14.0 | 1010.4 | 21.2 | WSW | 257 | 1.8 |
| 11.09.2025 | 10:47 | 16.8 | 84 | 14.1 | 1010.3 | 16.9 | S | 306 | 1.8 |
| 11.09.2025 | 10:52 | 17.0 | 82 | 13.9 | 1010.4 | 21.2 | SW | 427 | 1.8 |
| 11.09.2025 | 10:57 | 17.2 | 82 | 14.1 | 1010.4 | 12.6 | SW | 380 | 1.8 |
| 11.09.2025 | 11:02 | 17.4 | 82 | 14.3 | 1010.3 | 12.6 | SSW | 341 | 1.8 |
| 11.09.2025 | 11:08 | 17.6 | 81 | 14.3 | 1010.4 | 16.9 | WSW | 287 | 1.8 |
| 11.09.2025 | 11:13 | 17.3 | 81 | 14.0 | 1010.3 | 10.4 | SW | 272 | 1.8 |
| 11.09.2025 | 11:18 | 17.2 | 80 | 13.7 | 1010.3 | 21.2 | SW | 197 | 1.8 |
| 11.09.2025 | 11:23 | 17.1 | 80 | 13.6 | 1010.4 | 14.4 | WSW | 237 | 1.8 |
| 11.09.2025 | 11:28 | 17.2 | 80 | 13.7 | 1010.5 | 12.6 | W | 369 | 1.8 |
| 11.09.2025 | 11:33 | 17.4 | 80 | 13.9 | 1010.5 | 16.9 | SW | 297 | 1.8 |
| 11.09.2025 | 11:38 | 17.4 | 81 | 14.1 | 1010.5 | 18.7 | SW | 232 | 1.8 |
| 11.09.2025 | 11:43 | 17.3 | 80 | 13.8 | 1010.6 | 23.0 | SW | 257 | 1.8 |
| 11.09.2025 | 11:48 | 17.4 | 80 | 13.9 | 1010.7 | 21.2 | S | 223 | 1.8 |
| 11.09.2025 | 11:53 | 17.3 | 79 | 13.6 | 1010.6 | 12.6 | SSW | 230 | 1.8 |
| 11.09.2025 | 11:58 | 17.2 | 79 | 13.5 | 1010.6 | 8.3 | WSW | 253 | 1.8 |
| 11.09.2025 | 12:03 | 17.0 | 79 | 13.3 | 1010.7 | 29.5 | SW | 264 | 1.8 |
| 11.09.2025 | 12:08 | 17.2 | 80 | 13.7 | 1010.7 | 21.2 | SSW | 385 | 1.8 |
| 11.09.2025 | 12:13 | 17.5 | 78 | 13.6 | 1010.8 | 10.4 | SSW | 373 | 1.8 |
| 11.09.2025 | 12:18 | 17.6 | 77 | 13.5 | 1010.8 | 12.6 | WNW | 434 | 1.8 |
| 11.09.2025 | 12:23 | 17.7 | 78 | 13.8 | 1010.9 | 0.0 | W | 438 | 1.8 |
| 11.09.2025 | 12:28 | 17.9 | 76 | 13.6 | 1010.9 | 25.2 | SSW | 278 | 1.8 |
| 11.09.2025 | 12:33 | 17.7 | 76 | 13.4 | 1010.9 | 31.3 | SW | 195 | 1.8 |
| 11.09.2025 | 12:38 | 17.4 | 76 | 13.1 | 1011.0 | 12.6 | SSW | 162 | 1.8 |
| 11.09.2025 | 12:43 | 17.2 | 76 | 12.9 | 1011.1 | 4.3 | WSW | 127 | 1.8 |
| 11.09.2025 | 12:48 | 17.0 | 75 | 12.5 | 1011.2 | 10.4 | WNW | 135 | 1.8 |
| 11.09.2025 | 12:53 | 16.9 | 75 | 12.4 | 1011.2 | 14.4 | W | 172 | 1.8 |
| 11.09.2025 | 12:58 | 16.9 | 74 | 12.2 | 1011.3 | 14.4 | SW | 116 | 1.8 |
| 11.09.2025 | 13:03 | 16.8 | 74 | 12.1 | 1011.2 | 27.0 | W | 137 | 1.8 |
| 11.09.2025 | 13:08 | 16.8 | 75 | 12.3 | 1011.3 | 10.4 | SW | 262 | 1.8 |
| 11.09.2025 | 13:13 | 17.2 | 76 | 12.9 | 1011.3 | 10.4 | SW | 357 | 1.8 |
| 11.09.2025 | 13:18 | 17.4 | 75 | 12.9 | 1011.3 | 10.4 | SSW | 250 | 1.8 |
| 11.09.2025 | 13:23 | 17.5 | 75 | 13.0 | 1011.3 | 16.9 | SW | 269 | 1.8 |
| 11.09.2025 | 13:28 | 17.4 | 75 | 12.9 | 1011.5 | 25.2 | SSW | 183 | 1.8 |
| 11.09.2025 | 13:33 | 17.3 | 75 | 12.8 | 1011.4 | 21.2 | WSW | 223 | 1.8 |
| 11.09.2025 | 13:38 | 17.4 | 77 | 13.3 | 1011.5 | 8.3 | SW | 269 | 1.8 |
| 11.09.2025 | 13:43 | 17.7 | 76 | 13.4 | 1011.4 | 10.4 | SSW | 594 | 1.8 |
| 11.09.2025 | 13:48 | 18.3 | 75 | 13.8 | 1011.5 | 8.3 | WSW | 408 | 1.8 |
| 11.09.2025 | 13:53 | 18.4 | 74 | 13.7 | 1011.4 | 18.7 | S | 288 | 1.8 |
| 11.09.2025 | 13:59 | 18.2 | 74 | 13.5 | 1011.4 | 8.3 | SSW | 221 | 1.8 |
| 11.09.2025 | 14:04 | 18.1 | 74 | 13.4 | 1011.4 | 27.0 | SW | 230 | 1.8 |
| 11.09.2025 | 14:09 | 18.0 | 75 | 13.5 | 1011.5 | 25.2 | W | 311 | 1.8 |
| 11.09.2025 | 14:14 | 18.2 | 74 | 13.5 | 1011.5 | 23.0 | WNW | 288 | 1.8 |
| 11.09.2025 | 14:19 | 18.2 | 73 | 13.3 | 1011.4 | 23.0 | WSW | 262 | 1.8 |
| 11.09.2025 | 14:24 | 18.3 | 73 | 13.4 | 1011.4 | 8.3 | WSW | 327 | 1.8 |
| 11.09.2025 | 14:29 | 18.7 | 73 | 13.8 | 1011.5 | 14.4 | S | 232 | 1.8 |
| 11.09.2025 | 14:34 | 19.2 | 70 | 13.6 | 1011.3 | 12.6 | SSW | 758 | 1.8 |
| 11.09.2025 | 14:39 | 19.7 | 71 | 14.3 | 1011.4 | 29.5 | S | 722 | 1.8 |
| 11.09.2025 | 14:44 | 19.9 | 69 | 14.0 | 1011.4 | 12.6 | SSW | 791 | 1.8 |
| 11.09.2025 | 14:49 | 19.3 | 69 | 13.5 | 1011.4 | 23.0 | SSW | 329 | 1.8 |
| 11.09.2025 | 14:54 | 19.2 | 71 | 13.8 | 1011.3 | 10.4 | WSW | 186 | 1.8 |
| 11.09.2025 | 14:59 | 19.1 | 72 | 13.9 | 1011.2 | 12.6 | SW | 313 | 1.8 |
| 11.09.2025 | 15:04 | 19.1 | 72 | 13.9 | 1011.2 | 6.1 | WNW | 211 | 1.8 |
| 11.09.2025 | 15:09 | 18.8 | 73 | 13.9 | 1011.3 | 6.1 | WNW | 84 | 1.8 |
| 11.09.2025 | 15:14 | 18.2 | 74 | 13.5 | 1011.3 | 6.1 | SSW | 151 | 1.8 |
| 11.09.2025 | 15:19 | 17.9 | 75 | 13.4 | 1011.3 | 10.4 | SO | 118 | 1.8 |
| 11.09.2025 | 15:24 | 17.9 | 74 | 13.2 | 1011.4 | 10.4 | SW | 107 | 1.8 |
| 11.09.2025 | 15:29 | 17.9 | 75 | 13.4 | 1011.5 | 12.6 | WSW | 179 | 1.8 |
| 11.09.2025 | 15:34 | 18.1 | 75 | 13.6 | 1011.3 | 16.9 | WSW | 165 | 1.8 |
| 11.09.2025 | 15:39 | 18.1 | 74 | 13.4 | 1011.3 | 27.0 | SW | 149 | 1.8 |
| 11.09.2025 | 15:44 | 18.6 | 74 | 13.9 | 1011.3 | 8.3 | SSW | 663 | 1.8 |
| 11.09.2025 | 15:49 | 19.3 | 71 | 13.9 | 1011.3 | 18.7 | SW | 452 | 1.8 |
| 11.09.2025 | 15:54 | 19.9 | 68 | 13.8 | 1011.3 | 12.6 | SW | 643 | 1.8 |
| 11.09.2025 | 15:59 | 20.3 | 68 | 14.2 | 1011.3 | 23.0 | SSW | 589 | 1.8 |
| 11.09.2025 | 16:04 | 20.4 | 65 | 13.6 | 1011.3 | 16.9 | SW | 613 | 1.8 |
| 11.09.2025 | 16:09 | 20.2 | 67 | 13.9 | 1011.4 | 14.4 | WSW | 580 | 1.8 |
| 11.09.2025 | 16:14 | 19.8 | 67 | 13.5 | 1011.3 | 8.3 | SW | 151 | 1.8 |
| 11.09.2025 | 16:19 | 19.6 | 67 | 13.3 | 1011.4 | 16.9 | S | 142 | 1.8 |
| 11.09.2025 | 16:24 | 19.7 | 65 | 12.9 | 1011.4 | 21.2 | SSW | 200 | 1.8 |
| 11.09.2025 | 16:29 | 19.6 | 65 | 12.8 | 1011.4 | 16.9 | SW | 167 | 1.8 |
| 11.09.2025 | 16:34 | 19.6 | 66 | 13.1 | 1011.4 | 18.7 | SSW | 151 | 1.8 |
| 11.09.2025 | 16:40 | 19.2 | 68 | 13.1 | 1011.4 | 8.3 | WSW | 179 | 1.8 |
| 11.09.2025 | 16:45 | 19.1 | 68 | 13.1 | 1011.5 | 18.7 | WSW | 255 | 1.8 |
| 11.09.2025 | 16:50 | 19.6 | 68 | 13.5 | 1011.5 | 8.3 | SW | 309 | 1.8 |
| 11.09.2025 | 16:55 | 20.2 | 64 | 13.2 | 1011.5 | 18.7 | S | 220 | 1.8 |
| 11.09.2025 | 17:00 | 20.2 | 62 | 12.7 | 1011.4 | 25.2 | SW | 422 | 1.8 |
| 11.09.2025 | 17:05 | 20.2 | 61 | 12.4 | 1011.5 | 12.6 | W | 338 | 1.8 |
| 11.09.2025 | 17:10 | 20.1 | 61 | 12.3 | 1011.5 | 23.0 | SW | 396 | 1.8 |
| 11.09.2025 | 17:15 | 20.3 | 61 | 12.5 | 1011.6 | 14.4 | SSW | 367 | 1.8 |
| 11.09.2025 | 17:20 | 20.1 | 61 | 12.3 | 1011.6 | 31.3 | SW | 237 | 1.8 |
| 11.09.2025 | 17:25 | 20.1 | 63 | 12.8 | 1011.5 | 8.3 | WSW | 316 | 1.8 |
| 11.09.2025 | 17:30 | 19.6 | 63 | 12.4 | 1011.8 | 4.3 | W | 65 | 1.8 |
| 11.09.2025 | 17:35 | 19.1 | 64 | 12.1 | 1011.8 | 14.4 | SSW | 116 | 1.8 |
| 11.09.2025 | 17:40 | 19.1 | 66 | 12.6 | 1011.7 | 10.4 | WSW | 345 | 1.8 |
| 11.09.2025 | 17:45 | 19.4 | 66 | 12.9 | 1011.7 | 6.1 | WNW | 322 | 1.8 |
| 11.09.2025 | 17:50 | 19.0 | 66 | 12.5 | 1011.7 | 23.0 | SSW | 70 | 1.8 |
| 11.09.2025 | 17:55 | 18.6 | 68 | 12.6 | 1011.7 | 14.4 | SW | 304 | 1.8 |
| 11.09.2025 | 18:00 | 18.6 | 69 | 12.8 | 1011.7 | 8.3 | WSW | 97 | 1.8 |
| 11.09.2025 | 18:05 | 18.4 | 70 | 12.8 | 1011.8 | 14.4 | SW | 239 | 1.8 |
| 11.09.2025 | 18:10 | 18.7 | 70 | 13.1 | 1011.7 | 16.9 | SW | 197 | 1.8 |
| 11.09.2025 | 18:15 | 18.8 | 70 | 13.2 | 1011.6 | 6.1 | SW | 200 | 1.8 |
| 11.09.2025 | 18:20 | 18.8 | 69 | 13.0 | 1011.6 | 6.1 | SSW | 178 | 1.8 |
| 11.09.2025 | 18:25 | 18.8 | 69 | 13.0 | 1011.6 | 27.0 | SW | 156 | 1.8 |
| 11.09.2025 | 18:30 | 18.8 | 69 | 13.0 | 1011.6 | 12.6 | SSW | 139 | 1.8 |
| 11.09.2025 | 18:35 | 18.7 | 69 | 12.9 | 1011.7 | 10.4 | WNW | 95 | 1.8 |
| 11.09.2025 | 18:40 | 18.6 | 68 | 12.6 | 1011.7 | 21.2 | W | 28 | 1.8 |
| 11.09.2025 | 18:45 | 18.3 | 69 | 12.5 | 1011.8 | 8.3 | SSW | 26 | 1.8 |
| 11.09.2025 | 18:50 | 18.1 | 70 | 12.5 | 1011.9 | 14.4 | WSW | 37 | 1.8 |
| 11.09.2025 | 18:55 | 18.1 | 70 | 12.5 | 1011.9 | 14.4 | SW | 76 | 1.8 |
| 11.09.2025 | 19:00 | 17.9 | 71 | 12.6 | 1011.9 | 10.4 | WSW | 40 | 1.8 |
| 11.09.2025 | 19:05 | 17.7 | 72 | 12.6 | 1011.9 | 1.8 | SW | 25 | 1.8 |
| 11.09.2025 | 19:10 | 17.4 | 72 | 12.3 | 1012.0 | 8.3 | SSW | 39 | 1.8 |
| 11.09.2025 | 19:15 | 17.3 | 73 | 12.4 | 1011.9 | 10.4 | SSW | 19 | 1.8 |
| 11.09.2025 | 19:20 | 17.2 | 74 | 12.5 | 1012.0 | 6.1 | SSW | 19 | 1.8 |
| 11.09.2025 | 19:25 | 17.1 | 74 | 12.4 | 1012.0 | 4.3 | SSW | 12 | 1.8 |
| 11.09.2025 | 19:30 | 17.1 | 75 | 12.6 | 1012.0 | 6.1 | SSW | 11 | 1.8 |
| 11.09.2025 | 19:35 | 16.9 | 75 | 12.4 | 1012.0 | 14.4 | SSW | 9 | 1.8 |
| 11.09.2025 | 19:40 | 16.9 | 75 | 12.4 | 1012.0 | 6.1 | S | 7 | 1.8 |
| 11.09.2025 | 19:46 | 16.9 | 75 | 12.4 | 1012.0 | 14.4 | SSW | 5 | 1.8 |
| 11.09.2025 | 19:51 | 16.9 | 75 | 12.4 | 1012.1 | 8.3 | SSO | 0 | 1.8 |
| 11.09.2025 | 19:56 | 16.9 | 74 | 12.2 | 1012.1 | 4.3 | SW | 0 | 1.8 |
| 11.09.2025 | 20:01 | 17.1 | 74 | 12.4 | 1012.2 | 8.3 | S | 0 | 1.8 |
| 11.09.2025 | 20:06 | 17.2 | 73 | 12.3 | 1012.2 | 23.0 | SO | 0 | 1.8 |
| 11.09.2025 | 20:11 | 17.1 | 74 | 12.4 | 1012.2 | 12.6 | SSW | 0 | 1.8 |
| 11.09.2025 | 20:16 | 17.1 | 74 | 12.4 | 1012.3 | 18.7 | SSW | 0 | 1.8 |
| 11.09.2025 | 20:21 | 17.0 | 74 | 12.3 | 1012.3 | 12.6 | S | 0 | 1.8 |
| 11.09.2025 | 20:26 | 17.1 | 74 | 12.4 | 1012.4 | 8.3 | SW | 0 | 1.8 |
| 11.09.2025 | 20:31 | 17.1 | 74 | 12.4 | 1012.5 | 6.1 | SSW | 0 | 1.8 |
| 11.09.2025 | 20:36 | 17.1 | 74 | 12.4 | 1012.5 | 6.1 | SW | 0 | 1.8 |
| 11.09.2025 | 20:41 | 16.9 | 75 | 12.4 | 1012.6 | 16.9 | S | 0 | 1.8 |
| 11.09.2025 | 20:46 | 16.7 | 75 | 12.2 | 1012.6 | 8.3 | SW | 0 | 1.8 |
| 11.09.2025 | 20:51 | 16.7 | 76 | 12.4 | 1012.7 | 8.3 | S | 0 | 1.8 |
| 11.09.2025 | 20:56 | 16.6 | 76 | 12.4 | 1012.8 | 8.3 | SW | 0 | 1.8 |
| 11.09.2025 | 21:01 | 16.4 | 76 | 12.2 | 1012.9 | 10.4 | SSW | 0 | 1.8 |
| 11.09.2025 | 21:06 | 16.3 | 77 | 12.3 | 1012.9 | 12.6 | S | 0 | 1.8 |
| 11.09.2025 | 21:11 | 16.2 | 77 | 12.2 | 1012.9 | 6.1 | SSW | 0 | 1.8 |
| 11.09.2025 | 21:16 | 16.1 | 78 | 12.3 | 1012.9 | 10.4 | SSW | 0 | 1.8 |
| 11.09.2025 | 21:21 | 15.9 | 78 | 12.1 | 1012.9 | 8.3 | SW | 0 | 1.8 |
| 11.09.2025 | 21:26 | 15.8 | 79 | 12.2 | 1012.9 | 4.3 | SW | 0 | 1.8 |
| 11.09.2025 | 21:31 | 15.6 | 79 | 12.0 | 1012.8 | 6.1 | S | 0 | 1.8 |
| 11.09.2025 | 21:36 | 15.4 | 80 | 12.0 | 1012.8 | 10.4 | SSW | 0 | 1.8 |
| 11.09.2025 | 21:41 | 15.4 | 80 | 12.0 | 1012.7 | 6.1 | S | 0 | 1.8 |
| 11.09.2025 | 21:46 | 15.4 | 80 | 12.0 | 1012.8 | 8.3 | SSW | 0 | 1.8 |
| 11.09.2025 | 21:51 | 15.3 | 80 | 11.9 | 1012.8 | 6.1 | SSW | 0 | 1.8 |
| 11.09.2025 | 21:56 | 15.4 | 80 | 12.0 | 1012.8 | 10.4 | S | 0 | 1.8 |
| 11.09.2025 | 22:01 | 15.5 | 80 | 12.1 | 1012.8 | 14.4 | SSW | 0 | 1.8 |
| 11.09.2025 | 22:06 | 15.6 | 80 | 12.2 | 1012.8 | 8.3 | WSW | 0 | 1.8 |
| 11.09.2025 | 22:11 | 15.6 | 80 | 12.2 | 1012.9 | 10.4 | SSO | 0 | 1.8 |
| 11.09.2025 | 22:16 | 15.7 | 80 | 12.3 | 1012.9 | 8.3 | S | 0 | 1.8 |
| 11.09.2025 | 22:21 | 15.6 | 80 | 12.2 | 1013.0 | 12.6 | SSW | 0 | 1.8 |
| 11.09.2025 | 22:26 | 15.6 | 80 | 12.2 | 1013.0 | 8.3 | SSW | 0 | 1.8 |
| 11.09.2025 | 22:31 | 15.6 | 80 | 12.2 | 1013.0 | 14.4 | SSW | 0 | 1.8 |
| 11.09.2025 | 22:36 | 15.5 | 81 | 12.3 | 1013.0 | 4.3 | SSW | 0 | 1.8 |
| 11.09.2025 | 22:42 | 15.4 | 81 | 12.2 | 1012.9 | 10.4 | WSW | 0 | 1.8 |
| 11.09.2025 | 22:47 | 15.3 | 81 | 12.1 | 1012.8 | 6.1 | SW | 0 | 1.8 |
| 11.09.2025 | 22:52 | 15.1 | 82 | 12.0 | 1013.0 | 8.3 | SSW | 0 | 1.8 |
| 11.09.2025 | 22:57 | 15.0 | 82 | 12.0 | 1013.0 | 8.3 | SSW | 0 | 1.8 |
| 11.09.2025 | 23:02 | 14.7 | 83 | 11.8 | 1012.9 | 8.3 | SSW | 0 | 1.8 |
| 11.09.2025 | 23:07 | 14.7 | 83 | 11.8 | 1012.9 | 1.8 | SSW | 0 | 1.8 |
| 11.09.2025 | 23:12 | 14.5 | 84 | 11.8 | 1012.9 | 4.3 | SSW | 0 | 1.8 |
| 11.09.2025 | 23:17 | 14.4 | 84 | 11.7 | 1012.9 | 4.3 | SSW | 0 | 1.8 |
| 11.09.2025 | 23:22 | 14.4 | 85 | 11.9 | 1012.8 | 0.0 | SSW | 0 | 1.8 |
| 11.09.2025 | 23:27 | 14.4 | 85 | 11.9 | 1012.8 | 0.0 | SSW | 0 | 1.8 |
| 11.09.2025 | 23:32 | 14.5 | 85 | 12.0 | 1012.8 | 1.8 | SSW | 0 | 1.8 |
| 11.09.2025 | 23:37 | 14.4 | 85 | 11.9 | 1012.8 | 4.3 | SSW | 0 | 1.8 |
| 11.09.2025 | 23:42 | 14.6 | 86 | 12.3 | 1012.8 | 8.3 | SSW | 0 | 1.8 |
| 11.09.2025 | 23:47 | 14.5 | 85 | 12.0 | 1012.7 | 4.3 | SW | 0 | 1.8 |
| 11.09.2025 | 23:52 | 14.4 | 86 | 12.1 | 1012.7 | 4.3 | SSW | 0 | 1.8 |
| 11.09.2025 | 23:57 | 14.4 | 86 | 12.1 | 1012.7 | 10.4 | SSW | 0 | 1.8 |